Latta, SC (29565)

3:27 PM EST on February 13, 2016 (GMT -0500)
Marion County | | Change Station
CLOSE
Current Station
Airport
Location: Marion,
Elevation: 92 ft
Nearby Weather Stations
Active Advisory: Flood Warning

Elev 92 ft 34.18 °N, 79.33 °W | Updated 12 minutes ago

Clear
Clear
43 °F
Feels Like 38 °F
N
9
Wind Variable Wind from NW
Gusts 17 mph

Today
High -- | Low -- °F
--% Chance of Precip.
Yesterday
High -- | Low -- °F
Precip. -- in
Pressure 30.27 in
Visibility 10.0 miles
Clouds Clear
Windchill 38 °F
Dew Point 10 °F
Humidity 27%
Rainfall 0.00 in
Snow Depth Not available.
7:05 AM 5:58 PM
Waxing Crescent, 34% visible
METAR KMAO 132015Z AUTO 32008G15KT 10SM CLR 06/M12 A3027 RMK AO2
Pressure 30.27 in
Visibility 10.0 miles
Clouds Clear
Windchill 38 °F
Dew Point 10 °F
Humidity 27%
Rainfall 0.00 in
Snow Depth Not available.
7:05 AM 5:58 PM
Waxing Crescent, 34% visible
METAR KMAO 132015Z AUTO 32008G15KT 10SM CLR 06/M12 A3027 RMK AO2

10-Day Weather Forecast

Almanac

Astronomy

Feb. 13, 2016 Rise Set
Actual Time
Civil Twilight
Nautical Twilight
Astronomical Twilight
Moon
Length of Visible Light
Length of Day
Tomorrow will be .
, % of the Moon is Illuminated

Today's Extremes

State Highs State Lows

Community

WunderPhotos

Upload Photos

1,892,658 photos uploaded!

WunderBlog® & News

Nearby

Air Quality

  Air Quality AQ Index Pollutant
Not available.

Snow Depth

Station Depth Elevation

Earthquake Activity

City Distance Mag. Time & Date
Minimum magnitude displayed is 2.5.

Coastal Water Temperatures

Place Temperature

Stations

Nearby Weather Stations

Station Location Temp. Windchill Dew Point Humidity Wind Precip. Elev Updated Type
                   

Watches & Warnings

Flood Warning
Issued: 9:46 AM EST Feb. 13, 2016 – National Weather Service

... Flood Warning now in effect until further notice...
the Flood Warning continues for
the little Pee Dee at Galivants Ferry.
* Until further notice.
* At 9:00 am Saturday the stage was 10.30 feet.
* Flood stage is 9.0 feet.
* Minor flooding is occurring and minor flooding is forecast.
* Forecast... the river will continue to fall to a stage of 10.1 feet by tomorrow
morning.
* Impact... at 11.0 feet... flood waters will continue to rise in the Fork retch
community located near Nichols. Flood waters will begin to affect some homes
at Fork retch. Swampland flooding will increase.


Lat... Lon 3423 7921 3419 7910 3405 7920 3398 7928
          3400 7938 3409 7930